sensor_id;sensor_type;location;lat;lon;timestamp;P1;durP1;ratioP1;P2;durP2;ratioP2
56083;SDS011;41958;52.416;13.428;2023-03-01T00:00:49;29.73;;;14.80;;
56083;SDS011;41958;52.416;13.428;2023-03-01T00:03:15;27.48;;;14.38;;
56083;SDS011;41958;52.416;13.428;2023-03-01T00:05:43;31.77;;;14.52;;
56083;SDS011;41958;52.416;13.428;2023-03-01T00:08:10;27.58;;;14.02;;
56083;SDS011;41958;52.416;13.428;2023-03-01T00:10:35;26.55;;;14.35;;
56083;SDS011;41958;52.416;13.428;2023-03-01T00:13:01;27.50;;;13.57;;
56083;SDS011;41958;52.416;13.428;2023-03-01T00:15:26;27.10;;;13.85;;
56083;SDS011;41958;52.416;13.428;2023-03-01T00:17:51;27.02;;;14.73;;
56083;SDS011;41958;52.416;13.428;2023-03-01T00:20:16;29.67;;;14.68;;
56083;SDS011;41958;52.416;13.428;2023-03-01T00:22:42;32.30;;;15.52;;
56083;SDS011;41958;52.416;13.428;2023-03-01T00:25:07;30.35;;;15.10;;
56083;SDS011;41958;52.416;13.428;2023-03-01T00:27:32;27.58;;;13.90;;
56083;SDS011;41958;52.416;13.428;2023-03-01T00:29:58;28.75;;;15.68;;
56083;SDS011;41958;52.416;13.428;2023-03-01T00:32:23;25.45;;;13.93;;
56083;SDS011;41958;52.416;13.428;2023-03-01T00:34:48;24.65;;;13.57;;
56083;SDS011;41958;52.416;13.428;2023-03-01T00:37:18;26.63;;;14.25;;
56083;SDS011;41958;52.416;13.428;2023-03-01T00:39:44;31.10;;;14.60;;
56083;SDS011;41958;52.416;13.428;2023-03-01T00:42:09;29.92;;;14.50;;
56083;SDS011;41958;52.416;13.428;2023-03-01T00:44:35;29.02;;;13.98;;
56083;SDS011;41958;52.416;13.428;2023-03-01T00:47:00;30.52;;;16.83;;
56083;SDS011;41958;52.416;13.428;2023-03-01T00:49:25;30.00;;;14.98;;
56083;SDS011;41958;52.416;13.428;2023-03-01T00:51:52;32.90;;;15.38;;
56083;SDS011;41958;52.416;13.428;2023-03-01T00:54:18;31.70;;;14.70;;
56083;SDS011;41958;52.416;13.428;2023-03-01T00:56:43;34.72;;;15.18;;
56083;SDS011;41958;52.416;13.428;2023-03-01T00:59:08;32.03;;;15.90;;
56083;SDS011;41958;52.416;13.428;2023-03-01T01:01:33;32.08;;;15.02;;
56083;SDS011;41958;52.416;13.428;2023-03-01T01:04:09;29.38;;;15.70;;
56083;SDS011;41958;52.416;13.428;2023-03-01T01:06:39;34.83;;;15.75;;
56083;SDS011;41958;52.416;13.428;2023-03-01T01:09:10;32.40;;;16.13;;
56083;SDS011;41958;52.416;13.428;2023-03-01T01:11:42;31.23;;;16.33;;
56083;SDS011;41958;52.416;13.428;2023-03-01T01:14:08;30.25;;;15.63;;
56083;SDS011;41958;52.416;13.428;2023-03-01T01:16:33;34.92;;;15.40;;
56083;SDS011;41958;52.416;13.428;2023-03-01T01:18:59;28.55;;;15.23;;
56083;SDS011;41958;52.416;13.428;2023-03-01T01:21:24;32.75;;;15.98;;
56083;SDS011;41958;52.416;13.428;2023-03-01T01:23:50;28.50;;;14.07;;
56083;SDS011;41958;52.416;13.428;2023-03-01T01:26:21;32.05;;;14.38;;
56083;SDS011;41958;52.416;13.428;2023-03-01T01:28:48;32.13;;;14.82;;
56083;SDS011;41958;52.416;13.428;2023-03-01T01:31:15;24.67;;;13.65;;
56083;SDS011;41958;52.416;13.428;2023-03-01T01:33:40;32.63;;;15.85;;
56083;SDS011;41958;52.416;13.428;2023-03-01T01:36:06;32.22;;;14.32;;
56083;SDS011;41958;52.416;13.428;2023-03-01T01:38:32;30.25;;;15.05;;
56083;SDS011;41958;52.416;13.428;2023-03-01T01:40:58;29.10;;;14.75;;
56083;SDS011;41958;52.416;13.428;2023-03-01T01:43:25;29.98;;;15.15;;
56083;SDS011;41958;52.416;13.428;2023-03-01T01:45:54;29.02;;;14.38;;
56083;SDS011;41958;52.416;13.428;2023-03-01T01:48:24;26.25;;;14.05;;
56083;SDS011;41958;52.416;13.428;2023-03-01T01:51:05;30.23;;;14.73;;
56083;SDS011;41958;52.416;13.428;2023-03-01T01:53:32;32.70;;;14.98;;
56083;SDS011;41958;52.416;13.428;2023-03-01T01:55:58;29.27;;;15.05;;
56083;SDS011;41958;52.416;13.428;2023-03-01T01:58:26;29.77;;;15.55;;
56083;SDS011;41958;52.416;13.428;2023-03-01T02:00:54;28.33;;;16.05;;
56083;SDS011;41958;52.416;13.428;2023-03-01T02:03:24;27.90;;;15.52;;
56083;SDS011;41958;52.416;13.428;2023-03-01T02:06:00;32.25;;;14.43;;
56083;SDS011;41958;52.416;13.428;2023-03-01T02:08:44;29.65;;;14.95;;
56083;SDS011;41958;52.416;13.428;2023-03-01T02:11:11;28.27;;;14.85;;
56083;SDS011;41958;52.416;13.428;2023-03-01T02:13:39;31.20;;;15.77;;
56083;SDS011;41958;52.416;13.428;2023-03-01T02:16:08;30.17;;;15.48;;
56083;SDS011;41958;52.416;13.428;2023-03-01T02:18:35;28.98;;;15.02;;
56083;SDS011;41958;52.416;13.428;2023-03-01T02:21:05;26.92;;;14.60;;
56083;SDS011;41958;52.416;13.428;2023-03-01T02:23:38;29.17;;;14.82;;
56083;SDS011;41958;52.416;13.428;2023-03-01T02:26:06;31.35;;;14.93;;
56083;SDS011;41958;52.416;13.428;2023-03-01T02:28:38;29.27;;;14.57;;
56083;SDS011;41958;52.416;13.428;2023-03-01T02:31:07;29.45;;;15.88;;
56083;SDS011;41958;52.416;13.428;2023-03-01T02:33:54;28.25;;;14.38;;
56083;SDS011;41958;52.416;13.428;2023-03-01T02:36:21;27.75;;;14.88;;
56083;SDS011;41958;52.416;13.428;2023-03-01T02:41:21;25.10;;;13.50;;
56083;SDS011;41958;52.416;13.428;2023-03-01T02:43:49;27.45;;;13.73;;
56083;SDS011;41958;52.416;13.428;2023-03-01T02:46:16;29.85;;;13.95;;
56083;SDS011;41958;52.416;13.428;2023-03-01T02:48:48;29.63;;;14.48;;
56083;SDS011;41958;52.416;13.428;2023-03-01T02:54:12;27.23;;;14.60;;
56083;SDS011;41958;52.416;13.428;2023-03-01T02:56:46;27.48;;;13.95;;
56083;SDS011;41958;52.416;13.428;2023-03-01T02:59:15;27.75;;;13.90;;
56083;SDS011;41958;52.416;13.428;2023-03-01T03:01:45;27.17;;;14.32;;
56083;SDS011;41958;52.416;13.428;2023-03-01T03:04:13;31.35;;;15.50;;
56083;SDS011;41958;52.416;13.428;2023-03-01T03:06:44;30.80;;;13.10;;
56083;SDS011;41958;52.416;13.428;2023-03-01T03:09:10;26.98;;;13.55;;
56083;SDS011;41958;52.416;13.428;2023-03-01T03:11:37;29.83;;;14.32;;
56083;SDS011;41958;52.416;13.428;2023-03-01T03:14:04;31.73;;;15.38;;
56083;SDS011;41958;52.416;13.428;2023-03-01T03:16:29;30.25;;;13.82;;
56083;SDS011;41958;52.416;13.428;2023-03-01T03:18:54;31.30;;;14.77;;
56083;SDS011;41958;52.416;13.428;2023-03-01T03:21:20;30.55;;;13.95;;
56083;SDS011;41958;52.416;13.428;2023-03-01T03:23:45;28.08;;;14.30;;
56083;SDS011;41958;52.416;13.428;2023-03-01T03:26:10;29.13;;;13.48;;
56083;SDS011;41958;52.416;13.428;2023-03-01T03:28:40;26.80;;;13.77;;
56083;SDS011;41958;52.416;13.428;2023-03-01T03:31:06;26.42;;;13.90;;
56083;SDS011;41958;52.416;13.428;2023-03-01T03:33:32;29.55;;;14.63;;
56083;SDS011;41958;52.416;13.428;2023-03-01T03:35:58;27.48;;;12.75;;
56083;SDS011;41958;52.416;13.428;2023-03-01T03:38:23;28.23;;;13.80;;
56083;SDS011;41958;52.416;13.428;2023-03-01T03:43:16;27.33;;;13.40;;
56083;SDS011;41958;52.416;13.428;2023-03-01T03:45:44;26.23;;;14.10;;
56083;SDS011;41958;52.416;13.428;2023-03-01T03:48:11;31.83;;;15.82;;
56083;SDS011;41958;52.416;13.428;2023-03-01T03:50:37;31.30;;;16.48;;
56083;SDS011;41958;52.416;13.428;2023-03-01T03:53:05;32.25;;;15.10;;
56083;SDS011;41958;52.416;13.428;2023-03-01T03:55:32;30.00;;;14.88;;
56083;SDS011;41958;52.416;13.428;2023-03-01T03:57:58;27.73;;;14.15;;
56083;SDS011;41958;52.416;13.428;2023-03-01T04:00:27;30.88;;;14.25;;
56083;SDS011;41958;52.416;13.428;2023-03-01T04:02:53;29.60;;;14.25;;
56083;SDS011;41958;52.416;13.428;2023-03-01T04:05:22;27.00;;;13.75;;
56083;SDS011;41958;52.416;13.428;2023-03-01T04:07:49;27.52;;;14.00;;
56083;SDS011;41958;52.416;13.428;2023-03-01T04:10:25;28.55;;;14.20;;
56083;SDS011;41958;52.416;13.428;2023-03-01T04:12:51;28.83;;;14.30;;
56083;SDS011;41958;52.416;13.428;2023-03-01T04:15:17;25.58;;;14.40;;
56083;SDS011;41958;52.416;13.428;2023-03-01T04:17:43;30.05;;;14.23;;
56083;SDS011;41958;52.416;13.428;2023-03-01T04:20:11;30.08;;;14.38;;
56083;SDS011;41958;52.416;13.428;2023-03-01T04:22:42;27.88;;;14.68;;
56083;SDS011;41958;52.416;13.428;2023-03-01T04:25:08;28.73;;;14.20;;
56083;SDS011;41958;52.416;13.428;2023-03-01T04:27:34;28.42;;;15.02;;
56083;SDS011;41958;52.416;13.428;2023-03-01T04:30:01;31.10;;;13.93;;
56083;SDS011;41958;52.416;13.428;2023-03-01T04:32:26;26.83;;;15.45;;
56083;SDS011;41958;52.416;13.428;2023-03-01T04:34:52;29.65;;;14.05;;
56083;SDS011;41958;52.416;13.428;2023-03-01T04:37:17;27.58;;;14.70;;
56083;SDS011;41958;52.416;13.428;2023-03-01T04:39:42;29.17;;;13.45;;
56083;SDS011;41958;52.416;13.428;2023-03-01T04:42:12;25.73;;;13.88;;
56083;SDS011;41958;52.416;13.428;2023-03-01T04:44:38;27.60;;;13.07;;
56083;SDS011;41958;52.416;13.428;2023-03-01T04:47:03;28.65;;;13.27;;
56083;SDS011;41958;52.416;13.428;2023-03-01T04:49:28;30.27;;;14.40;;
56083;SDS011;41958;52.416;13.428;2023-03-01T04:51:54;30.10;;;14.35;;
56083;SDS011;41958;52.416;13.428;2023-03-01T04:54:19;31.33;;;14.52;;
56083;SDS011;41958;52.416;13.428;2023-03-01T04:56:44;27.13;;;13.98;;
56083;SDS011;41958;52.416;13.428;2023-03-01T04:59:09;30.48;;;15.02;;
56083;SDS011;41958;52.416;13.428;2023-03-01T05:01:37;27.33;;;13.48;;
56083;SDS011;41958;52.416;13.428;2023-03-01T05:04:02;30.27;;;14.73;;
56083;SDS011;41958;52.416;13.428;2023-03-01T05:06:30;31.00;;;14.57;;
56083;SDS011;41958;52.416;13.428;2023-03-01T05:08:55;31.67;;;14.38;;
56083;SDS011;41958;52.416;13.428;2023-03-01T05:11:20;28.67;;;14.57;;
56083;SDS011;41958;52.416;13.428;2023-03-01T05:13:46;31.80;;;15.32;;
56083;SDS011;41958;52.416;13.428;2023-03-01T05:16:12;28.65;;;15.27;;
56083;SDS011;41958;52.416;13.428;2023-03-01T05:18:37;28.13;;;14.00;;
56083;SDS011;41958;52.416;13.428;2023-03-01T05:21:05;31.10;;;15.25;;
56083;SDS011;41958;52.416;13.428;2023-03-01T05:23:34;29.42;;;14.48;;
56083;SDS011;41958;52.416;13.428;2023-03-01T05:26:03;29.23;;;14.65;;
56083;SDS011;41958;52.416;13.428;2023-03-01T05:28:30;25.45;;;14.43;;
56083;SDS011;41958;52.416;13.428;2023-03-01T05:30:56;28.85;;;14.38;;
56083;SDS011;41958;52.416;13.428;2023-03-01T05:33:22;28.70;;;15.30;;
56083;SDS011;41958;52.416;13.428;2023-03-01T05:35:48;30.33;;;15.60;;
56083;SDS011;41958;52.416;13.428;2023-03-01T05:38:14;31.95;;;14.43;;
56083;SDS011;41958;52.416;13.428;2023-03-01T05:40:40;29.50;;;15.23;;
56083;SDS011;41958;52.416;13.428;2023-03-01T05:43:07;31.52;;;16.30;;
56083;SDS011;41958;52.416;13.428;2023-03-01T05:45:32;30.23;;;15.20;;
56083;SDS011;41958;52.416;13.428;2023-03-01T05:48:00;27.98;;;15.05;;
56083;SDS011;41958;52.416;13.428;2023-03-01T05:50:26;31.17;;;13.95;;
56083;SDS011;41958;52.416;13.428;2023-03-01T05:52:57;33.80;;;14.95;;
56083;SDS011;41958;52.416;13.428;2023-03-01T05:55:25;29.80;;;14.80;;
56083;SDS011;41958;52.416;13.428;2023-03-01T05:57:50;27.73;;;14.18;;
56083;SDS011;41958;52.416;13.428;2023-03-01T06:00:16;28.95;;;14.38;;
56083;SDS011;41958;52.416;13.428;2023-03-01T06:02:43;32.00;;;14.85;;
56083;SDS011;41958;52.416;13.428;2023-03-01T06:05:09;26.58;;;14.00;;
56083;SDS011;41958;52.416;13.428;2023-03-01T06:07:36;32.15;;;15.68;;
56083;SDS011;41958;52.416;13.428;2023-03-01T06:10:02;28.13;;;15.43;;
56083;SDS011;41958;52.416;13.428;2023-03-01T06:12:35;33.03;;;17.15;;
56083;SDS011;41958;52.416;13.428;2023-03-01T06:15:01;37.43;;;17.73;;
56083;SDS011;41958;52.416;13.428;2023-03-01T06:17:28;42.45;;;19.70;;
56083;SDS011;41958;52.416;13.428;2023-03-01T06:19:55;37.20;;;20.40;;
56083;SDS011;41958;52.416;13.428;2023-03-01T06:22:20;35.33;;;18.05;;
56083;SDS011;41958;52.416;13.428;2023-03-01T06:24:45;32.67;;;16.85;;
56083;SDS011;41958;52.416;13.428;2023-03-01T06:27:10;36.10;;;16.83;;
56083;SDS011;41958;52.416;13.428;2023-03-01T06:29:36;33.38;;;16.08;;
56083;SDS011;41958;52.416;13.428;2023-03-01T06:32:02;37.47;;;16.98;;
56083;SDS011;41958;52.416;13.428;2023-03-01T06:34:27;34.05;;;16.80;;
56083;SDS011;41958;52.416;13.428;2023-03-01T06:36:52;36.72;;;17.13;;
56083;SDS011;41958;52.416;13.428;2023-03-01T06:39:18;28.98;;;15.23;;
56083;SDS011;41958;52.416;13.428;2023-03-01T06:41:44;33.83;;;15.95;;
56083;SDS011;41958;52.416;13.428;2023-03-01T06:44:09;33.72;;;16.67;;
56083;SDS011;41958;52.416;13.428;2023-03-01T06:46:34;39.00;;;17.90;;
56083;SDS011;41958;52.416;13.428;2023-03-01T06:49:00;37.00;;;18.25;;
56083;SDS011;41958;52.416;13.428;2023-03-01T06:51:25;48.35;;;19.90;;
56083;SDS011;41958;52.416;13.428;2023-03-01T06:53:50;37.17;;;18.45;;
56083;SDS011;41958;52.416;13.428;2023-03-01T06:56:16;36.00;;;19.08;;
56083;SDS011;41958;52.416;13.428;2023-03-01T06:58:41;37.22;;;18.60;;
56083;SDS011;41958;52.416;13.428;2023-03-01T07:01:07;35.28;;;17.95;;
56083;SDS011;41958;52.416;13.428;2023-03-01T07:03:33;39.10;;;18.52;;
56083;SDS011;41958;52.416;13.428;2023-03-01T07:05:58;32.72;;;17.40;;
56083;SDS011;41958;52.416;13.428;2023-03-01T07:08:23;35.13;;;17.70;;
56083;SDS011;41958;52.416;13.428;2023-03-01T07:10:51;37.45;;;18.27;;
56083;SDS011;41958;52.416;13.428;2023-03-01T07:13:19;38.78;;;18.23;;
56083;SDS011;41958;52.416;13.428;2023-03-01T07:15:45;38.78;;;20.00;;
56083;SDS011;41958;52.416;13.428;2023-03-01T07:18:10;36.20;;;19.13;;
56083;SDS011;41958;52.416;13.428;2023-03-01T07:20:35;39.75;;;20.15;;
56083;SDS011;41958;52.416;13.428;2023-03-01T07:23:00;42.15;;;19.95;;
56083;SDS011;41958;52.416;13.428;2023-03-01T07:25:25;36.42;;;18.70;;
56083;SDS011;41958;52.416;13.428;2023-03-01T07:27:51;37.80;;;19.65;;
56083;SDS011;41958;52.416;13.428;2023-03-01T07:30:17;47.92;;;24.65;;
56083;SDS011;41958;52.416;13.428;2023-03-01T07:32:42;46.22;;;22.48;;
56083;SDS011;41958;52.416;13.428;2023-03-01T07:35:07;40.38;;;20.98;;
56083;SDS011;41958;52.416;13.428;2023-03-01T07:37:33;41.08;;;22.38;;
56083;SDS011;41958;52.416;13.428;2023-03-01T07:39:58;46.20;;;24.90;;
56083;SDS011;41958;52.416;13.428;2023-03-01T07:42:23;41.33;;;21.88;;
56083;SDS011;41958;52.416;13.428;2023-03-01T07:44:49;40.22;;;21.63;;
56083;SDS011;41958;52.416;13.428;2023-03-01T07:47:14;42.45;;;22.52;;
56083;SDS011;41958;52.416;13.428;2023-03-01T07:49:39;38.20;;;20.42;;
56083;SDS011;41958;52.416;13.428;2023-03-01T07:52:05;39.50;;;17.80;;
56083;SDS011;41958;52.416;13.428;2023-03-01T07:54:30;29.00;;;16.05;;
56083;SDS011;41958;52.416;13.428;2023-03-01T07:56:56;28.48;;;15.45;;
56083;SDS011;41958;52.416;13.428;2023-03-01T07:59:21;30.35;;;15.02;;
56083;SDS011;41958;52.416;13.428;2023-03-01T08:01:48;30.35;;;15.20;;
56083;SDS011;41958;52.416;13.428;2023-03-01T08:04:13;29.38;;;14.35;;
56083;SDS011;41958;52.416;13.428;2023-03-01T08:06:39;29.45;;;13.98;;
56083;SDS011;41958;52.416;13.428;2023-03-01T08:09:04;29.05;;;15.20;;
56083;SDS011;41958;52.416;13.428;2023-03-01T08:11:29;30.08;;;14.70;;
56083;SDS011;41958;52.416;13.428;2023-03-01T08:13:54;25.75;;;14.45;;
56083;SDS011;41958;52.416;13.428;2023-03-01T08:16:20;25.88;;;13.25;;
56083;SDS011;41958;52.416;13.428;2023-03-01T08:18:45;24.77;;;13.27;;
56083;SDS011;41958;52.416;13.428;2023-03-01T08:21:12;25.90;;;13.50;;
56083;SDS011;41958;52.416;13.428;2023-03-01T08:23:39;25.45;;;13.90;;
56083;SDS011;41958;52.416;13.428;2023-03-01T08:26:12;27.73;;;15.23;;
56083;SDS011;41958;52.416;13.428;2023-03-01T08:28:45;26.38;;;15.02;;
56083;SDS011;41958;52.416;13.428;2023-03-01T08:31:19;27.45;;;15.52;;
56083;SDS011;41958;52.416;13.428;2023-03-01T08:33:50;29.58;;;15.35;;
56083;SDS011;41958;52.416;13.428;2023-03-01T08:36:20;24.75;;;14.52;;
56083;SDS011;41958;52.416;13.428;2023-03-01T08:38:49;29.58;;;14.95;;
56083;SDS011;41958;52.416;13.428;2023-03-01T08:41:14;28.33;;;15.02;;
56083;SDS011;41958;52.416;13.428;2023-03-01T08:43:40;27.88;;;15.82;;
56083;SDS011;41958;52.416;13.428;2023-03-01T08:46:05;30.10;;;16.70;;
56083;SDS011;41958;52.416;13.428;2023-03-01T08:48:30;27.20;;;15.90;;
56083;SDS011;41958;52.416;13.428;2023-03-01T08:50:55;31.38;;;16.73;;
56083;SDS011;41958;52.416;13.428;2023-03-01T08:53:21;30.55;;;16.95;;
56083;SDS011;41958;52.416;13.428;2023-03-01T08:55:46;29.25;;;16.27;;
56083;SDS011;41958;52.416;13.428;2023-03-01T08:58:11;28.17;;;16.35;;
56083;SDS011;41958;52.416;13.428;2023-03-01T09:00:37;27.48;;;16.33;;
56083;SDS011;41958;52.416;13.428;2023-03-01T09:03:03;27.50;;;15.25;;
56083;SDS011;41958;52.416;13.428;2023-03-01T09:05:31;28.45;;;15.18;;
56083;SDS011;41958;52.416;13.428;2023-03-01T09:07:57;25.80;;;14.40;;
56083;SDS011;41958;52.416;13.428;2023-03-01T09:10:22;25.05;;;14.55;;
56083;SDS011;41958;52.416;13.428;2023-03-01T09:12:48;25.73;;;14.75;;
56083;SDS011;41958;52.416;13.428;2023-03-01T09:15:13;26.27;;;13.68;;
56083;SDS011;41958;52.416;13.428;2023-03-01T09:17:38;20.70;;;13.00;;
56083;SDS011;41958;52.416;13.428;2023-03-01T09:20:04;21.02;;;13.07;;
56083;SDS011;41958;52.416;13.428;2023-03-01T09:22:30;18.38;;;12.45;;
56083;SDS011;41958;52.416;13.428;2023-03-01T09:24:57;18.85;;;11.07;;
56083;SDS011;41958;52.416;13.428;2023-03-01T09:27:24;20.08;;;12.52;;
56083;SDS011;41958;52.416;13.428;2023-03-01T09:29:50;19.50;;;11.63;;
56083;SDS011;41958;52.416;13.428;2023-03-01T09:32:15;18.58;;;10.60;;
56083;SDS011;41958;52.416;13.428;2023-03-01T09:34:40;17.55;;;10.38;;
56083;SDS011;41958;52.416;13.428;2023-03-01T09:37:24;19.77;;;9.77;;
56083;SDS011;41958;52.416;13.428;2023-03-01T09:39:49;20.42;;;10.70;;
56083;SDS011;41958;52.416;13.428;2023-03-01T09:42:14;19.60;;;10.95;;
56083;SDS011;41958;52.416;13.428;2023-03-01T09:44:43;15.70;;;9.95;;
56083;SDS011;41958;52.416;13.428;2023-03-01T09:47:18;18.40;;;10.00;;
56083;SDS011;41958;52.416;13.428;2023-03-01T09:49:47;17.80;;;9.88;;
56083;SDS011;41958;52.416;13.428;2023-03-01T09:52:29;16.52;;;9.68;;
56083;SDS011;41958;52.416;13.428;2023-03-01T09:55:10;18.90;;;9.63;;
56083;SDS011;41958;52.416;13.428;2023-03-01T09:58:00;21.90;;;10.43;;
56083;SDS011;41958;52.416;13.428;2023-03-01T10:00:33;18.08;;;9.52;;
56083;SDS011;41958;52.416;13.428;2023-03-01T10:03:08;17.80;;;10.23;;
56083;SDS011;41958;52.416;13.428;2023-03-01T10:05:47;14.75;;;8.77;;
56083;SDS011;41958;52.416;13.428;2023-03-01T10:08:29;17.27;;;8.63;;
56083;SDS011;41958;52.416;13.428;2023-03-01T10:11:01;14.10;;;8.93;;
56083;SDS011;41958;52.416;13.428;2023-03-01T10:16:12;14.63;;;9.40;;
56083;SDS011;41958;52.416;13.428;2023-03-01T10:18:41;13.23;;;8.98;;
56083;SDS011;41958;52.416;13.428;2023-03-01T10:21:15;14.95;;;8.18;;
56083;SDS011;41958;52.416;13.428;2023-03-01T10:23:42;12.13;;;7.70;;
56083;SDS011;41958;52.416;13.428;2023-03-01T10:26:30;16.17;;;8.88;;
56083;SDS011;41958;52.416;13.428;2023-03-01T10:31:49;18.45;;;9.10;;
56083;SDS011;41958;52.416;13.428;2023-03-01T10:34:20;13.63;;;8.70;;
56083;SDS011;41958;52.416;13.428;2023-03-01T10:36:48;16.20;;;8.82;;
56083;SDS011;41958;52.416;13.428;2023-03-01T10:39:16;15.35;;;9.43;;
56083;SDS011;41958;52.416;13.428;2023-03-01T10:44:48;15.88;;;8.43;;
56083;SDS011;41958;52.416;13.428;2023-03-01T10:47:24;14.40;;;8.18;;
56083;SDS011;41958;52.416;13.428;2023-03-01T10:52:28;15.48;;;8.90;;
56083;SDS011;41958;52.416;13.428;2023-03-01T10:54:57;14.65;;;8.68;;
56083;SDS011;41958;52.416;13.428;2023-03-01T10:57:27;15.50;;;8.70;;
56083;SDS011;41958;52.416;13.428;2023-03-01T11:02:48;13.57;;;7.80;;
56083;SDS011;41958;52.416;13.428;2023-03-01T11:05:37;13.15;;;8.18;;
56083;SDS011;41958;52.416;13.428;2023-03-01T11:08:28;12.80;;;7.85;;
56083;SDS011;41958;52.416;13.428;2023-03-01T11:11:03;11.43;;;6.35;;
56083;SDS011;41958;52.416;13.428;2023-03-01T11:13:30;12.20;;;7.07;;
56083;SDS011;41958;52.416;13.428;2023-03-01T11:16:03;11.80;;;6.60;;
56083;SDS011;41958;52.416;13.428;2023-03-01T11:18:34;11.13;;;6.45;;
56083;SDS011;41958;52.416;13.428;2023-03-01T11:21:00;12.35;;;6.90;;
56083;SDS011;41958;52.416;13.428;2023-03-01T11:23:27;12.40;;;6.30;;
56083;SDS011;41958;52.416;13.428;2023-03-01T11:26:05;8.95;;;5.85;;
56083;SDS011;41958;52.416;13.428;2023-03-01T11:28:33;13.80;;;7.00;;
56083;SDS011;41958;52.416;13.428;2023-03-01T11:31:05;13.55;;;7.05;;
56083;SDS011;41958;52.416;13.428;2023-03-01T11:33:41;13.10;;;7.40;;
56083;SDS011;41958;52.416;13.428;2023-03-01T11:39:20;9.10;;;4.93;;
56083;SDS011;41958;52.416;13.428;2023-03-01T11:41:59;8.00;;;4.45;;
56083;SDS011;41958;52.416;13.428;2023-03-01T11:44:33;7.78;;;4.65;;
56083;SDS011;41958;52.416;13.428;2023-03-01T11:47:08;8.75;;;4.90;;
56083;SDS011;41958;52.416;13.428;2023-03-01T11:50:04;11.00;;;5.80;;
56083;SDS011;41958;52.416;13.428;2023-03-01T11:52:47;8.50;;;4.70;;
56083;SDS011;41958;52.416;13.428;2023-03-01T12:03:22;7.32;;;3.50;;
56083;SDS011;41958;52.416;13.428;2023-03-01T12:06:14;7.38;;;3.83;;
56083;SDS011;41958;52.416;13.428;2023-03-01T12:09:17;6.63;;;4.20;;
56083;SDS011;41958;52.416;13.428;2023-03-01T12:18:04;8.50;;;3.05;;
56083;SDS011;41958;52.416;13.428;2023-03-01T12:29:47;6.80;;;3.10;;
56083;SDS011;41958;52.416;13.428;2023-03-01T12:38:42;4.68;;;2.90;;
56083;SDS011;41958;52.416;13.428;2023-03-01T12:41:28;6.32;;;3.10;;
56083;SDS011;41958;52.416;13.428;2023-03-01T12:44:10;5.20;;;2.70;;
56083;SDS011;41958;52.416;13.428;2023-03-01T12:47:02;6.47;;;2.67;;
56083;SDS011;41958;52.416;13.428;2023-03-01T12:49:41;5.97;;;2.60;;
56083;SDS011;41958;52.416;13.428;2023-03-01T12:52:13;3.70;;;2.40;;
56083;SDS011;41958;52.416;13.428;2023-03-01T12:54:44;6.63;;;2.80;;
56083;SDS011;41958;52.416;13.428;2023-03-01T12:57:18;10.38;;;2.58;;
56083;SDS011;41958;52.416;13.428;2023-03-01T13:00:02;5.45;;;3.03;;
56083;SDS011;41958;52.416;13.428;2023-03-01T13:05:23;4.68;;;2.83;;
56083;SDS011;41958;52.416;13.428;2023-03-01T13:08:08;3.13;;;2.15;;
56083;SDS011;41958;52.416;13.428;2023-03-01T13:10:43;4.38;;;2.28;;
56083;SDS011;41958;52.416;13.428;2023-03-01T13:13:20;4.30;;;2.40;;
56083;SDS011;41958;52.416;13.428;2023-03-01T13:15:48;4.50;;;2.47;;
56083;SDS011;41958;52.416;13.428;2023-03-01T13:33:42;6.65;;;2.22;;
56083;SDS011;41958;52.416;13.428;2023-03-01T13:36:09;4.00;;;1.98;;
56083;SDS011;41958;52.416;13.428;2023-03-01T13:38:45;3.47;;;1.90;;
56083;SDS011;41958;52.416;13.428;2023-03-01T13:41:13;5.03;;;1.90;;
56083;SDS011;41958;52.416;13.428;2023-03-01T13:43:41;3.97;;;1.80;;
56083;SDS011;41958;52.416;13.428;2023-03-01T13:46:19;4.32;;;1.83;;
56083;SDS011;41958;52.416;13.428;2023-03-01T13:48:47;4.38;;;2.03;;
56083;SDS011;41958;52.416;13.428;2023-03-01T13:51:16;7.88;;;2.00;;
56083;SDS011;41958;52.416;13.428;2023-03-01T13:53:52;4.05;;;1.90;;
56083;SDS011;41958;52.416;13.428;2023-03-01T13:56:21;5.47;;;2.00;;
56083;SDS011;41958;52.416;13.428;2023-03-01T13:59:04;6.20;;;2.13;;
56083;SDS011;41958;52.416;13.428;2023-03-01T14:01:44;3.55;;;1.88;;
56083;SDS011;41958;52.416;13.428;2023-03-01T14:04:24;3.13;;;1.77;;
56083;SDS011;41958;52.416;13.428;2023-03-01T14:07:08;2.28;;;1.88;;
56083;SDS011;41958;52.416;13.428;2023-03-01T14:09:34;3.70;;;1.80;;
56083;SDS011;41958;52.416;13.428;2023-03-01T14:14:59;5.28;;;2.13;;
56083;SDS011;41958;52.416;13.428;2023-03-01T14:17:46;4.80;;;2.22;;
56083;SDS011;41958;52.416;13.428;2023-03-01T14:20:19;3.50;;;2.10;;
56083;SDS011;41958;52.416;13.428;2023-03-01T14:22:47;4.68;;;1.92;;
56083;SDS011;41958;52.416;13.428;2023-03-01T14:25:19;3.65;;;2.28;;
56083;SDS011;41958;52.416;13.428;2023-03-01T14:27:51;3.67;;;2.13;;
56083;SDS011;41958;52.416;13.428;2023-03-01T14:30:21;6.10;;;2.38;;
56083;SDS011;41958;52.416;13.428;2023-03-01T14:32:54;2.72;;;2.00;;
56083;SDS011;41958;52.416;13.428;2023-03-01T14:35:23;5.38;;;2.47;;
56083;SDS011;41958;52.416;13.428;2023-03-01T14:37:51;4.40;;;2.10;;
56083;SDS011;41958;52.416;13.428;2023-03-01T14:40:21;3.90;;;2.22;;
56083;SDS011;41958;52.416;13.428;2023-03-01T14:42:48;4.90;;;2.15;;
56083;SDS011;41958;52.416;13.428;2023-03-01T14:45:14;4.55;;;2.40;;
56083;SDS011;41958;52.416;13.428;2023-03-01T14:47:39;5.32;;;2.20;;
56083;SDS011;41958;52.416;13.428;2023-03-01T14:50:07;3.60;;;2.50;;
56083;SDS011;41958;52.416;13.428;2023-03-01T14:52:35;3.95;;;2.15;;
56083;SDS011;41958;52.416;13.428;2023-03-01T14:55:04;5.47;;;1.92;;
56083;SDS011;41958;52.416;13.428;2023-03-01T14:57:32;7.32;;;2.30;;
56083;SDS011;41958;52.416;13.428;2023-03-01T14:59:58;3.90;;;2.42;;
56083;SDS011;41958;52.416;13.428;2023-03-01T15:02:27;3.50;;;2.50;;
56083;SDS011;41958;52.416;13.428;2023-03-01T15:04:56;4.80;;;2.20;;
56083;SDS011;41958;52.416;13.428;2023-03-01T15:07:26;4.03;;;2.30;;
56083;SDS011;41958;52.416;13.428;2023-03-01T15:09:56;6.03;;;2.65;;
56083;SDS011;41958;52.416;13.428;2023-03-01T15:14:54;2.38;;;1.83;;
56083;SDS011;41958;52.416;13.428;2023-03-01T15:17:31;4.60;;;2.05;;
56083;SDS011;41958;52.416;13.428;2023-03-01T15:20:00;3.67;;;2.33;;
56083;SDS011;41958;52.416;13.428;2023-03-01T15:22:27;4.00;;;1.67;;
56083;SDS011;41958;52.416;13.428;2023-03-01T15:24:53;3.22;;;1.90;;
56083;SDS011;41958;52.416;13.428;2023-03-01T15:27:20;4.40;;;1.80;;
56083;SDS011;41958;52.416;13.428;2023-03-01T15:29:57;3.70;;;1.73;;
56083;SDS011;41958;52.416;13.428;2023-03-01T15:32:32;3.13;;;1.92;;
56083;SDS011;41958;52.416;13.428;2023-03-01T15:34:59;4.88;;;2.13;;
56083;SDS011;41958;52.416;13.428;2023-03-01T15:37:45;3.28;;;1.58;;
56083;SDS011;41958;52.416;13.428;2023-03-01T15:40:24;2.97;;;1.65;;
56083;SDS011;41958;52.416;13.428;2023-03-01T15:43:01;3.08;;;1.60;;
56083;SDS011;41958;52.416;13.428;2023-03-01T15:45:29;2.47;;;1.30;;